createdAt,value
2019-05-18T00:00:45.629Z,3.00
2019-05-18T00:01:45.616Z,2.80
2019-05-18T00:02:45.621Z,3.00
2019-05-18T00:03:45.590Z,2.70
2019-05-18T00:04:45.579Z,2.90
2019-05-18T00:05:45.569Z,3.00
2019-05-18T00:06:45.557Z,3.00
2019-05-18T00:07:45.546Z,3.00
2019-05-18T00:08:45.543Z,3.00
2019-05-18T00:09:45.522Z,2.80
2019-05-18T00:10:45.513Z,2.80
2019-05-18T00:11:45.501Z,2.70
2019-05-18T00:12:45.490Z,2.90
2019-05-18T00:13:45.478Z,2.70
2019-05-18T00:14:45.501Z,3.00
2019-05-18T00:15:45.462Z,2.80
2019-05-18T00:16:45.444Z,2.80
2019-05-18T00:17:45.435Z,2.90
2019-05-18T00:18:45.422Z,2.80
2019-05-18T00:19:45.409Z,2.80
2019-05-18T00:20:45.407Z,2.80
2019-05-18T00:21:45.387Z,3.00
2019-05-18T00:22:45.376Z,3.00
2019-05-18T00:23:45.384Z,2.90
2019-05-18T00:24:45.354Z,2.80
2019-05-18T00:25:45.342Z,3.00
2019-05-18T00:26:45.365Z,3.10
2019-05-18T00:27:45.320Z,3.00
2019-05-18T00:28:45.311Z,2.90
2019-05-18T00:29:45.300Z,2.70
2019-05-18T00:30:45.287Z,2.80
2019-05-18T00:31:45.276Z,2.90
2019-05-18T00:32:45.292Z,2.70
2019-05-18T00:33:45.260Z,3.10
2019-05-18T00:34:45.241Z,3.10
2019-05-18T00:35:45.230Z,2.80
2019-05-18T00:36:45.218Z,2.70
2019-05-18T00:37:45.207Z,2.70
2019-05-18T00:38:45.204Z,2.70
2019-05-18T00:39:45.246Z,3.00
2019-05-18T00:40:45.173Z,2.90
2019-05-18T00:41:45.633Z,2.80
2019-05-18T00:42:45.151Z,2.50
2019-05-18T00:43:45.140Z,3.10
2019-05-18T00:44:45.167Z,2.80
2019-05-18T00:45:45.117Z,2.90
2019-05-18T00:46:45.105Z,2.90
2019-05-18T00:47:45.095Z,3.00
2019-05-18T00:48:45.083Z,2.70
2019-05-18T00:49:45.072Z,3.00
2019-05-18T00:50:45.090Z,2.80
2019-05-18T00:51:45.050Z,2.90
2019-05-18T00:52:45.039Z,3.00
2019-05-18T00:53:45.027Z,2.80
2019-05-18T00:54:45.018Z,3.00
2019-05-18T00:55:45.006Z,2.90
2019-05-18T00:56:45.022Z,2.80
2019-05-18T00:57:44.982Z,3.00
2019-05-18T00:58:44.971Z,3.00
2019-05-18T00:59:44.960Z,3.00
2019-05-18T01:00:44.949Z,2.60
2019-05-18T01:01:44.938Z,2.80
2019-05-18T01:02:44.957Z,2.60
2019-05-18T01:03:44.914Z,2.80
2019-05-18T01:04:44.904Z,2.90
2019-05-18T01:05:44.892Z,3.00
2019-05-18T01:06:44.883Z,3.10
2019-05-18T01:07:44.873Z,2.80
2019-05-18T01:08:44.888Z,2.80
2019-05-18T01:09:44.847Z,2.90
2019-05-18T01:10:44.836Z,3.00
2019-05-18T01:11:44.824Z,3.00
2019-05-18T01:12:44.813Z,3.10
2019-05-18T01:13:44.802Z,2.70
2019-05-18T01:14:44.812Z,2.80
2019-05-18T01:15:44.783Z,2.90
2019-05-18T01:16:44.768Z,2.90
2019-05-18T01:17:56.417Z,3.10
2019-05-18T01:18:45.744Z,3.10
2019-05-18T01:19:44.734Z,3.00
2019-05-18T01:20:44.729Z,3.10
2019-05-18T01:21:44.711Z,2.80
2019-05-18T01:22:44.700Z,3.20
2019-05-18T01:23:44.690Z,2.80
2019-05-18T01:24:44.677Z,2.80
2019-05-18T01:25:44.668Z,2.90
2019-05-18T01:26:44.682Z,2.90
2019-05-18T01:27:44.669Z,2.90
2019-05-18T01:28:44.632Z,2.90
2019-05-18T01:29:44.622Z,2.80
2019-05-18T01:30:44.612Z,2.70
2019-05-18T01:31:44.599Z,2.80
2019-05-18T01:32:44.618Z,2.80
2019-05-18T01:33:44.578Z,2.50
2019-05-18T01:34:44.567Z,2.80
2019-05-18T01:35:44.554Z,2.80
2019-05-18T01:36:44.547Z,2.80
2019-05-18T01:37:44.533Z,2.80
2019-05-18T01:38:44.526Z,3.10
2019-05-18T01:39:44.509Z,3.00
2019-05-18T01:40:44.500Z,2.70
2019-05-18T01:41:44.486Z,2.70
2019-05-18T01:42:44.475Z,2.80
2019-05-18T01:43:44.465Z,2.90
2019-05-18T01:44:44.462Z,2.80
2019-05-18T01:45:44.442Z,3.10
2019-05-18T01:46:44.432Z,3.20
2019-05-18T01:47:44.418Z,2.90
2019-05-18T01:48:44.407Z,2.90
2019-05-18T01:49:44.424Z,2.70
2019-05-18T01:50:44.406Z,2.90
2019-05-18T01:51:44.373Z,3.00
2019-05-18T01:52:44.367Z,2.70
2019-05-18T01:53:44.351Z,3.00
2019-05-18T01:54:44.340Z,2.90
2019-05-18T01:55:44.328Z,3.10
2019-05-18T01:56:44.346Z,3.00
2019-05-18T01:57:44.309Z,3.20
2019-05-18T01:58:44.295Z,2.90
2019-05-18T01:59:44.284Z,3.00
2019-05-18T02:00:44.271Z,2.80
2019-05-18T02:01:44.261Z,3.10
2019-05-18T02:02:44.278Z,2.90
2019-05-18T02:03:44.239Z,3.20
2019-05-18T02:04:44.228Z,2.90
2019-05-18T02:05:44.224Z,3.00
2019-05-18T02:06:44.204Z,2.90
2019-05-18T02:07:44.193Z,3.20
2019-05-18T02:08:44.189Z,2.80
2019-05-18T02:09:44.171Z,3.00
2019-05-18T02:10:44.159Z,2.90
2019-05-18T02:11:44.148Z,3.00
2019-05-18T02:12:44.136Z,3.10
2019-05-18T02:13:44.126Z,3.00
2019-05-18T02:14:44.143Z,2.80
2019-05-18T02:15:44.104Z,2.70
2019-05-18T02:16:44.096Z,3.00
2019-05-18T02:17:44.080Z,3.00
2019-05-18T02:18:44.073Z,2.90
2019-05-18T02:19:44.059Z,2.80
2019-05-18T02:20:44.068Z,3.00
2019-05-18T02:21:44.036Z,2.80
2019-05-18T02:22:44.027Z,2.90
2019-05-18T02:23:44.013Z,2.90
2019-05-18T02:24:44.009Z,2.90
2019-05-18T02:25:43.991Z,2.80
2019-05-18T02:26:43.986Z,2.80
2019-05-18T02:27:43.970Z,3.00
2019-05-18T02:28:43.956Z,3.00
2019-05-18T02:29:43.946Z,2.90
2019-05-18T02:30:43.934Z,3.10
2019-05-18T02:31:43.930Z,3.00
2019-05-18T02:32:43.943Z,3.20
2019-05-18T02:33:43.901Z,3.10
2019-05-18T02:34:43.892Z,3.10
2019-05-18T02:35:43.877Z,3.00
2019-05-18T02:36:43.866Z,3.00
2019-05-18T02:37:43.855Z,2.80
2019-05-18T02:38:43.852Z,3.20
2019-05-18T02:39:43.832Z,2.90
2019-05-18T02:40:43.830Z,3.00
2019-05-18T02:41:43.811Z,3.00
2019-05-18T02:42:43.801Z,2.80
2019-05-18T02:43:43.788Z,3.30
2019-05-18T02:44:43.806Z,3.00
2019-05-18T02:45:43.770Z,2.80
2019-05-18T02:46:43.755Z,3.10
2019-05-18T02:47:43.744Z,3.00
2019-05-18T02:48:49.197Z,3.10
2019-05-18T02:49:44.731Z,2.80
2019-05-18T02:50:43.710Z,2.90
2019-05-18T02:51:43.698Z,3.00
2019-05-18T02:52:43.687Z,3.20
2019-05-18T02:53:43.712Z,3.10
2019-05-18T02:54:43.665Z,3.00
2019-05-18T02:55:43.673Z,2.90
2019-05-18T02:56:43.643Z,3.10
2019-05-18T02:57:43.630Z,3.10
2019-05-18T02:58:43.623Z,3.10
2019-05-18T02:59:43.608Z,3.10
2019-05-18T03:00:43.596Z,3.00
2019-05-18T03:01:43.615Z,3.00
2019-05-18T03:02:43.574Z,3.00
2019-05-18T03:03:43.563Z,3.10
2019-05-18T03:04:43.551Z,3.00
2019-05-18T03:05:43.541Z,2.90
2019-05-18T03:06:43.529Z,3.20
2019-05-18T03:07:43.549Z,2.90
2019-05-18T03:08:43.505Z,2.70
2019-05-18T03:09:43.495Z,2.90
2019-05-18T03:10:43.484Z,3.00
2019-05-18T03:11:43.473Z,3.30
2019-05-18T03:12:43.460Z,3.00
2019-05-18T03:13:43.472Z,3.10
2019-05-18T03:14:43.438Z,3.10
2019-05-18T03:15:43.426Z,3.00
2019-05-18T03:16:43.415Z,3.00
2019-05-18T03:17:43.412Z,3.00
2019-05-18T03:18:43.393Z,3.20
2019-05-18T03:19:43.412Z,3.00
2019-05-18T03:20:43.372Z,3.10
2019-05-18T03:21:43.360Z,3.20
2019-05-18T03:22:43.349Z,3.10
2019-05-18T03:23:43.338Z,3.40
2019-05-18T03:24:43.327Z,2.70
2019-05-18T03:25:43.320Z,2.90
2019-05-18T03:26:43.304Z,3.30
2019-05-18T03:27:43.292Z,3.10
2019-05-18T03:28:43.280Z,3.20
2019-05-18T03:29:43.270Z,3.10
2019-05-18T03:30:43.259Z,3.20
2019-05-18T03:31:43.261Z,3.40
2019-05-18T03:32:43.237Z,3.10
2019-05-18T03:33:43.232Z,3.10
2019-05-18T03:34:43.231Z,3.20
2019-05-18T03:35:43.203Z,3.30
2019-05-18T03:36:43.195Z,3.00
2019-05-18T03:37:43.188Z,3.10
2019-05-18T03:38:43.168Z,3.30
2019-05-18T03:39:43.160Z,3.10
2019-05-18T03:40:43.145Z,3.30
2019-05-18T03:41:43.134Z,3.30
2019-05-18T03:42:43.125Z,3.10
2019-05-18T03:43:43.140Z,3.40
2019-05-18T03:44:43.103Z,3.10
2019-05-18T03:45:43.089Z,3.00
2019-05-18T03:46:43.079Z,3.40
2019-05-18T03:47:43.067Z,3.10
2019-05-18T03:48:43.056Z,3.30
2019-05-18T03:49:43.074Z,3.20
2019-05-18T03:50:43.032Z,2.90
2019-05-18T03:51:43.021Z,3.40
2019-05-18T03:52:43.012Z,3.10
2019-05-18T03:53:43.001Z,3.20
2019-05-18T03:54:42.992Z,3.30
2019-05-18T03:55:42.984Z,3.10
2019-05-18T03:56:42.967Z,3.20
2019-05-18T03:57:42.966Z,3.40
2019-05-18T03:58:42.943Z,3.10
2019-05-18T03:59:42.981Z,3.20
2019-05-18T04:00:42.923Z,3.10
2019-05-18T04:01:42.931Z,3.00
2019-05-18T04:02:42.898Z,3.10
2019-05-18T04:03:42.891Z,3.40
2019-05-18T04:04:42.875Z,3.20
2019-05-18T04:05:42.878Z,2.90
2019-05-18T04:06:42.857Z,3.10
2019-05-18T04:07:42.849Z,3.30
2019-05-18T04:08:42.831Z,3.10
2019-05-18T04:09:42.821Z,3.10
2019-05-18T04:10:42.812Z,3.10
2019-05-18T04:11:42.795Z,3.00
2019-05-18T04:12:42.785Z,3.30
2019-05-18T04:13:42.782Z,3.00
2019-05-18T04:14:42.763Z,3.40
2019-05-18T04:15:42.751Z,3.20
2019-05-18T04:16:42.748Z,3.50
2019-05-18T04:17:42.728Z,3.20
2019-05-18T04:18:42.718Z,3.30
2019-05-18T04:19:46.741Z,3.20
2019-05-18T04:20:42.699Z,3.30
2019-05-18T04:21:42.685Z,3.20
2019-05-18T04:22:42.673Z,3.70
2019-05-18T04:23:42.662Z,3.10
2019-05-18T04:24:42.654Z,3.30
2019-05-18T04:25:43.834Z,3.40
2019-05-18T04:26:42.627Z,3.10
2019-05-18T04:27:42.615Z,3.40
2019-05-18T04:28:42.605Z,3.40
2019-05-18T04:29:42.596Z,3.40
2019-05-18T04:30:42.581Z,3.30
2019-05-18T04:31:42.578Z,3.30
2019-05-18T04:32:42.570Z,3.40
2019-05-18T04:33:42.548Z,3.20
2019-05-18T04:34:42.541Z,3.20
2019-05-18T04:35:42.528Z,3.50
2019-05-18T04:36:42.517Z,3.20
2019-05-18T04:37:42.534Z,3.30
2019-05-18T04:38:42.496Z,3.50
2019-05-18T04:39:42.481Z,3.50
2019-05-18T04:40:42.476Z,3.40
2019-05-18T04:41:42.461Z,3.10
2019-05-18T04:42:42.449Z,3.20
2019-05-18T04:43:42.465Z,3.60
2019-05-18T04:44:42.425Z,3.00
2019-05-18T04:45:42.415Z,3.10
2019-05-18T04:46:42.403Z,3.50
2019-05-18T04:47:42.393Z,3.60
2019-05-18T04:48:42.380Z,3.40
2019-05-18T04:49:42.400Z,3.50
2019-05-18T04:50:42.358Z,3.30
2019-05-18T04:51:42.348Z,3.40
2019-05-18T04:52:42.335Z,3.30
2019-05-18T04:53:42.325Z,3.20
2019-05-18T04:54:42.313Z,3.00
2019-05-18T04:55:42.308Z,3.50
2019-05-18T04:56:43.140Z,3.20
2019-05-18T04:57:42.281Z,3.40
2019-05-18T04:58:42.269Z,3.50
2019-05-18T04:59:42.255Z,3.40
2019-05-18T05:00:42.252Z,3.30
2019-05-18T05:01:42.240Z,3.40
2019-05-18T05:02:42.222Z,3.30
2019-05-18T05:03:42.211Z,3.30
2019-05-18T05:04:42.199Z,3.30
2019-05-18T05:05:42.188Z,3.30
2019-05-18T05:06:42.181Z,3.60
2019-05-18T05:07:42.173Z,3.30
2019-05-18T05:08:42.153Z,3.90
2019-05-18T05:09:42.143Z,3.40
2019-05-18T05:10:42.132Z,3.60
2019-05-18T05:11:42.120Z,3.20
2019-05-18T05:12:42.110Z,3.50
2019-05-18T05:13:42.125Z,3.20
2019-05-18T05:14:42.087Z,3.60
2019-05-18T05:15:42.075Z,3.40
2019-05-18T05:16:42.064Z,3.60
2019-05-18T05:17:42.053Z,3.40
2019-05-18T05:18:42.042Z,3.60
2019-05-18T05:19:42.059Z,3.40
2019-05-18T05:20:42.018Z,3.40
2019-05-18T05:21:42.010Z,3.20
2019-05-18T05:22:41.997Z,3.60
2019-05-18T05:23:41.987Z,3.30
2019-05-18T05:24:41.973Z,3.60
2019-05-18T05:25:41.991Z,3.50
2019-05-18T05:26:41.950Z,3.50
2019-05-18T05:27:41.939Z,3.60
2019-05-18T05:28:41.929Z,3.50
2019-05-18T05:29:41.917Z,3.60
2019-05-18T05:30:41.908Z,3.40
2019-05-18T05:31:41.926Z,3.60
2019-05-18T05:32:41.886Z,3.30
2019-05-18T05:33:41.875Z,3.30
2019-05-18T05:34:41.862Z,3.50
2019-05-18T05:35:41.852Z,3.30
2019-05-18T05:36:41.842Z,3.70
2019-05-18T05:37:41.833Z,3.40
2019-05-18T05:38:41.816Z,3.40
2019-05-18T05:39:41.805Z,3.30
2019-05-18T05:40:41.793Z,3.60
2019-05-18T05:41:41.782Z,3.60
2019-05-18T05:42:41.770Z,3.60
2019-05-18T05:43:41.791Z,3.60
2019-05-18T05:44:41.760Z,3.40
2019-05-18T05:45:41.737Z,3.60
2019-05-18T05:46:41.726Z,3.40
2019-05-18T05:47:41.714Z,3.60
2019-05-18T05:48:41.702Z,3.30
2019-05-18T05:49:41.699Z,3.80
2019-05-18T05:50:41.680Z,3.60
2019-05-18T05:51:41.670Z,3.60
2019-05-18T05:52:41.839Z,3.50
2019-05-18T05:53:41.646Z,3.70
2019-05-18T05:54:41.635Z,3.40
2019-05-18T05:55:41.632Z,3.50
2019-05-18T05:56:41.613Z,3.40
2019-05-18T05:57:41.603Z,3.70
2019-05-18T05:58:41.601Z,3.60
2019-05-18T05:59:41.579Z,3.60
2019-05-18T06:00:41.569Z,3.40
2019-05-18T06:01:41.598Z,3.50
2019-05-18T06:02:41.549Z,3.30
2019-05-18T06:03:41.535Z,3.50
2019-05-18T06:04:41.523Z,3.40
2019-05-18T06:05:41.514Z,3.50
2019-05-18T06:06:41.500Z,3.40
2019-05-18T06:07:41.520Z,3.50
2019-05-18T06:08:41.478Z,3.30
2019-05-18T06:09:41.468Z,3.20
2019-05-18T06:10:41.455Z,3.60
2019-05-18T06:11:41.444Z,3.50
2019-05-18T06:12:41.432Z,3.50
2019-05-18T06:13:41.428Z,3.50
2019-05-18T06:14:41.409Z,3.80
2019-05-18T06:15:41.398Z,3.60
2019-05-18T06:16:41.388Z,3.50
2019-05-18T06:17:41.377Z,3.40
2019-05-18T06:18:41.370Z,3.50
2019-05-18T06:19:41.361Z,3.30
2019-05-18T06:20:50.913Z,3.30
2019-05-18T06:21:42.337Z,3.30
2019-05-18T06:22:41.332Z,3.20
2019-05-18T06:23:41.309Z,3.40
2019-05-18T06:24:41.297Z,3.40
2019-05-18T06:25:41.318Z,3.50
2019-05-18T06:26:41.274Z,3.40
2019-05-18T06:27:41.262Z,3.30
2019-05-18T06:28:41.253Z,3.20
2019-05-18T06:29:41.243Z,3.90
2019-05-18T06:30:41.231Z,3.40
2019-05-18T06:31:41.251Z,3.20
2019-05-18T06:32:41.207Z,3.30
2019-05-18T06:33:41.197Z,3.40
2019-05-18T06:34:41.183Z,3.70
2019-05-18T06:35:41.173Z,3.50
2019-05-18T06:36:41.178Z,3.50
2019-05-18T06:37:41.158Z,3.40
2019-05-18T06:38:41.140Z,3.40
2019-05-18T06:39:41.129Z,3.20
2019-05-18T06:40:41.117Z,3.30
2019-05-18T06:41:41.110Z,3.30
2019-05-18T06:42:41.094Z,3.60
2019-05-18T06:43:41.138Z,3.50
2019-05-18T06:44:41.075Z,3.50
2019-05-18T06:45:41.061Z,3.70
2019-05-18T06:46:41.050Z,3.30
2019-05-18T06:47:41.039Z,3.50
2019-05-18T06:48:41.026Z,3.40
2019-05-18T06:49:41.021Z,3.50
2019-05-18T06:50:41.027Z,3.20
2019-05-18T06:51:40.996Z,3.60
2019-05-18T06:52:40.993Z,3.30
2019-05-18T06:53:40.970Z,3.40
2019-05-18T06:54:40.960Z,3.50
2019-05-18T06:55:40.955Z,3.10
2019-05-18T06:56:40.937Z,3.80
2019-05-18T06:57:40.927Z,3.30
2019-05-18T06:58:40.914Z,3.40
2019-05-18T06:59:40.903Z,3.40
2019-05-18T07:00:40.892Z,3.30
2019-05-18T07:01:40.889Z,3.10
2019-05-18T07:02:40.869Z,3.60
2019-05-18T07:03:40.859Z,3.40
2019-05-18T07:04:40.847Z,3.50
2019-05-18T07:05:40.836Z,3.50
2019-05-18T07:06:40.824Z,3.30
2019-05-18T07:07:40.821Z,3.30
2019-05-18T07:08:40.802Z,3.30
2019-05-18T07:09:40.793Z,3.10
2019-05-18T07:10:40.781Z,3.50
2019-05-18T07:11:40.774Z,3.20
2019-05-18T07:12:40.757Z,3.50
2019-05-18T07:13:40.755Z,3.30
2019-05-18T07:14:40.734Z,3.30
2019-05-18T07:15:40.723Z,3.10
2019-05-18T07:16:40.714Z,3.10
2019-05-18T07:17:40.701Z,3.50
2019-05-18T07:18:40.690Z,3.50
2019-05-18T07:19:40.685Z,3.40
2019-05-18T07:20:40.667Z,3.50
2019-05-18T07:21:40.655Z,3.10
2019-05-18T07:22:40.645Z,3.30
2019-05-18T07:23:43.757Z,3.10
2019-05-18T07:24:40.623Z,3.00
2019-05-18T07:25:40.619Z,3.40
2019-05-18T07:26:40.617Z,3.50
2019-05-18T07:27:40.588Z,3.30
2019-05-18T07:28:40.576Z,3.20
2019-05-18T07:29:40.566Z,3.30
2019-05-18T07:30:40.555Z,3.10
2019-05-18T07:31:40.573Z,3.40
2019-05-18T07:32:40.531Z,3.30
2019-05-18T07:33:40.522Z,3.30
2019-05-18T07:34:40.510Z,3.30
2019-05-18T07:35:40.505Z,3.50
2019-05-18T07:36:40.491Z,3.20
2019-05-18T07:37:40.509Z,3.10
2019-05-18T07:38:40.465Z,3.20
2019-05-18T07:39:40.453Z,3.30
2019-05-18T07:40:40.468Z,3.30
2019-05-18T07:41:46.951Z,3.00
2019-05-18T07:42:41.450Z,3.50
2019-05-18T07:43:40.408Z,3.30
2019-05-18T07:44:40.416Z,3.20
2019-05-18T07:45:40.386Z,3.30
2019-05-18T07:46:40.399Z,3.50
2019-05-18T07:47:40.363Z,3.10
2019-05-18T07:48:40.359Z,3.10
2019-05-18T07:49:40.344Z,3.40
2019-05-18T07:50:40.328Z,3.30
2019-05-18T07:51:40.317Z,3.20
2019-05-18T07:52:40.306Z,3.10
2019-05-18T07:53:40.295Z,3.30
2019-05-18T07:54:40.310Z,2.90
2019-05-18T07:55:40.272Z,3.10
2019-05-18T07:56:40.272Z,3.00
2019-05-18T07:57:40.253Z,3.20
2019-05-18T07:58:40.238Z,3.20
2019-05-18T07:59:40.227Z,3.30
2019-05-18T08:00:40.225Z,3.10
2019-05-18T08:01:40.205Z,3.20
2019-05-18T08:02:40.194Z,3.00
2019-05-18T08:03:40.182Z,3.20
2019-05-18T08:04:40.170Z,3.40
2019-05-18T08:05:40.160Z,3.40
2019-05-18T08:06:40.175Z,2.90
2019-05-18T08:07:40.138Z,3.40
2019-05-18T08:08:40.128Z,3.40
2019-05-18T08:09:40.115Z,3.30
2019-05-18T08:10:43.305Z,3.10
2019-05-18T08:11:40.094Z,3.20
2019-05-18T08:12:40.156Z,3.20
2019-05-18T08:13:40.069Z,3.40
2019-05-18T08:14:40.057Z,3.20
2019-05-18T08:15:40.099Z,3.00
2019-05-18T08:16:40.037Z,3.00
2019-05-18T08:17:40.027Z,3.10
2019-05-18T08:18:40.047Z,3.20
2019-05-18T08:19:40.012Z,3.00
2019-05-18T08:20:39.991Z,3.00
2019-05-18T08:21:52.142Z,3.10
2019-05-18T08:22:40.966Z,3.30
2019-05-18T08:23:39.959Z,2.90
2019-05-18T08:24:39.952Z,2.80
2019-05-18T08:25:39.935Z,3.20
2019-05-18T08:26:39.923Z,3.20
2019-05-18T08:27:39.918Z,3.10
2019-05-18T08:28:39.904Z,3.10
2019-05-18T08:29:39.889Z,3.00
2019-05-18T08:30:39.887Z,3.00
2019-05-18T08:31:39.866Z,3.00
2019-05-18T08:32:39.856Z,3.10
2019-05-18T08:33:39.844Z,3.10
2019-05-18T08:34:39.833Z,3.10
2019-05-18T08:35:39.822Z,3.10
2019-05-18T08:36:39.838Z,2.90
2019-05-18T08:37:39.802Z,3.10
2019-05-18T08:38:39.789Z,3.30
2019-05-18T08:39:39.781Z,3.10
2019-05-18T08:40:39.765Z,3.20
2019-05-18T08:41:39.764Z,3.00
2019-05-18T08:42:39.773Z,2.90
2019-05-18T08:43:39.738Z,3.00
2019-05-18T08:44:39.720Z,3.10
2019-05-18T08:45:39.710Z,3.20
2019-05-18T08:46:39.699Z,3.10
2019-05-18T08:47:39.686Z,3.00
2019-05-18T08:48:39.683Z,3.10
2019-05-18T08:49:39.664Z,3.10
2019-05-18T08:50:39.654Z,2.90
2019-05-18T08:51:39.641Z,3.00
2019-05-18T08:52:39.629Z,3.10
2019-05-18T08:53:39.626Z,3.10
2019-05-18T08:54:39.688Z,3.00
2019-05-18T08:55:39.596Z,2.90
2019-05-18T08:56:39.585Z,2.90
2019-05-18T08:57:39.579Z,3.00
2019-05-18T08:58:39.562Z,3.10
2019-05-18T08:59:40.075Z,3.30
2019-05-18T09:00:39.569Z,2.90
2019-05-18T09:01:39.531Z,2.90
2019-05-18T09:02:39.525Z,3.10
2019-05-18T09:03:39.506Z,2.90
2019-05-18T09:04:39.499Z,3.00
2019-05-18T09:05:39.484Z,3.20
2019-05-18T09:06:39.480Z,2.90
2019-05-18T09:07:39.461Z,2.90
2019-05-18T09:08:39.450Z,3.10
2019-05-18T09:09:39.439Z,3.00
2019-05-18T09:10:39.428Z,3.00
2019-05-18T09:11:39.416Z,2.90
2019-05-18T09:12:39.439Z,3.10
2019-05-18T09:13:39.397Z,3.00
2019-05-18T09:14:39.382Z,3.00
2019-05-18T09:15:39.371Z,2.80
2019-05-18T09:16:39.364Z,3.00
2019-05-18T09:17:39.349Z,3.20
2019-05-18T09:18:39.344Z,2.90
2019-05-18T09:19:39.327Z,3.10
2019-05-18T09:20:39.315Z,3.00
2019-05-18T09:21:39.306Z,3.10
2019-05-18T09:22:39.292Z,3.10
2019-05-18T09:23:39.282Z,3.10
2019-05-18T09:24:39.277Z,3.00
2019-05-18T09:25:39.260Z,2.90
2019-05-18T09:26:39.248Z,3.00
2019-05-18T09:27:39.236Z,3.00
2019-05-18T09:28:39.225Z,3.00
2019-05-18T09:29:39.225Z,2.90
2019-05-18T09:30:41.245Z,3.00
2019-05-18T09:31:39.202Z,2.80
2019-05-18T09:32:39.184Z,3.10
2019-05-18T09:33:39.170Z,2.90
2019-05-18T09:34:39.158Z,2.90
2019-05-18T09:35:39.146Z,3.30
2019-05-18T09:36:39.157Z,2.90
2019-05-18T09:37:39.124Z,3.10
2019-05-18T09:38:39.116Z,2.80
2019-05-18T09:39:39.101Z,3.10
2019-05-18T09:40:39.091Z,2.80
2019-05-18T09:41:39.078Z,2.80
2019-05-18T09:42:39.080Z,2.80
2019-05-18T09:43:39.056Z,2.90
2019-05-18T09:44:39.045Z,3.00
2019-05-18T09:45:39.034Z,2.90
2019-05-18T09:46:39.027Z,3.00
2019-05-18T09:47:39.011Z,3.10
2019-05-18T09:48:39.027Z,2.80
2019-05-18T09:49:38.991Z,3.00
2019-05-18T09:50:38.978Z,2.90
2019-05-18T09:51:38.966Z,3.10
2019-05-18T09:52:46.611Z,3.30
2019-05-18T09:53:50.716Z,2.90
2019-05-18T09:54:39.931Z,3.10
2019-05-18T09:55:38.922Z,3.10
2019-05-18T09:56:38.909Z,3.10
2019-05-18T09:57:38.899Z,3.10
2019-05-18T09:58:38.891Z,3.10
2019-05-18T09:59:38.882Z,2.80
2019-05-18T10:00:39.280Z,3.10
2019-05-18T10:01:38.854Z,2.90
2019-05-18T10:02:38.850Z,3.10
2019-05-18T10:03:38.830Z,2.80
2019-05-18T10:04:38.819Z,2.90
2019-05-18T10:05:38.813Z,2.90
2019-05-18T10:06:38.795Z,2.80
2019-05-18T10:07:38.786Z,2.90
2019-05-18T10:08:38.777Z,2.80
2019-05-18T10:09:39.762Z,2.80
2019-05-18T10:10:38.752Z,2.80
2019-05-18T10:11:39.018Z,2.90
2019-05-18T10:12:38.729Z,3.10
2019-05-18T10:13:38.717Z,2.90
2019-05-18T10:14:38.706Z,3.10
2019-05-18T10:15:38.695Z,2.70
2019-05-18T10:16:38.688Z,3.10
2019-05-18T10:17:38.718Z,2.70
2019-05-18T10:18:38.662Z,2.70
2019-05-18T10:19:38.651Z,2.80
2019-05-18T10:20:38.644Z,2.90
2019-05-18T10:21:38.628Z,2.80
2019-05-18T10:22:53.384Z,2.80
2019-05-18T10:23:40.507Z,2.90
2019-05-18T10:24:38.594Z,2.60
2019-05-18T10:25:38.582Z,2.70
2019-05-18T10:26:38.590Z,3.00
2019-05-18T10:27:38.560Z,2.80
2019-05-18T10:28:38.550Z,2.80
2019-05-18T10:29:38.565Z,2.70
2019-05-18T10:30:38.540Z,2.80
2019-05-18T10:31:38.515Z,3.00
2019-05-18T10:32:38.506Z,2.80
2019-05-18T10:33:38.493Z,2.80
2019-05-18T10:34:38.484Z,2.90
2019-05-18T10:35:38.477Z,2.90
2019-05-18T10:36:38.459Z,2.90
2019-05-18T10:37:38.448Z,3.00
2019-05-18T10:38:38.436Z,2.80
2019-05-18T10:39:38.895Z,2.90
2019-05-18T10:40:38.413Z,2.60
2019-05-18T10:41:38.409Z,3.00
2019-05-18T10:42:38.391Z,2.80
2019-05-18T10:43:38.381Z,3.00
2019-05-18T10:44:38.367Z,2.90
2019-05-18T10:45:38.358Z,2.80
2019-05-18T10:46:38.346Z,3.10
2019-05-18T10:47:38.367Z,3.10
2019-05-18T10:48:38.323Z,2.70
2019-05-18T10:49:38.314Z,2.90
2019-05-18T10:50:38.300Z,2.80
2019-05-18T10:51:38.290Z,2.60
2019-05-18T10:52:38.277Z,3.00
2019-05-18T10:53:38.274Z,2.60
2019-05-18T10:54:38.256Z,2.90
2019-05-18T10:55:38.245Z,3.00
2019-05-18T10:56:38.233Z,2.90
2019-05-18T10:57:38.221Z,2.90
2019-05-18T10:58:38.211Z,2.90
2019-05-18T10:59:38.208Z,2.70
2019-05-18T11:00:38.187Z,2.70
2019-05-18T11:01:38.178Z,2.70
2019-05-18T11:02:38.169Z,2.80
2019-05-18T11:03:38.157Z,2.80
2019-05-18T11:04:38.144Z,3.10
2019-05-18T11:05:38.140Z,2.80
2019-05-18T11:06:38.121Z,2.80
2019-05-18T11:07:38.118Z,2.90
2019-05-18T11:08:38.528Z,3.00
2019-05-18T11:09:38.088Z,3.00
2019-05-18T11:10:38.076Z,2.80
2019-05-18T11:11:38.073Z,2.70
2019-05-18T11:12:38.056Z,2.80
2019-05-18T11:13:38.046Z,2.90
2019-05-18T11:14:38.030Z,2.50
2019-05-18T11:15:38.019Z,2.80
2019-05-18T11:16:38.008Z,2.80
2019-05-18T11:17:38.007Z,2.90
2019-05-18T11:18:37.986Z,2.80
2019-05-18T11:19:37.975Z,2.60
2019-05-18T11:20:37.968Z,2.80
2019-05-18T11:21:37.952Z,2.90
2019-05-18T11:22:37.940Z,3.00
2019-05-18T11:23:43.654Z,2.30
2019-05-18T11:24:38.917Z,2.50
2019-05-18T11:25:37.907Z,2.80
2019-05-18T11:26:37.900Z,2.70
2019-05-18T11:27:37.883Z,2.80
2019-05-18T11:28:37.876Z,2.50
2019-05-18T11:29:37.874Z,2.60
2019-05-18T11:30:37.850Z,3.00
2019-05-18T11:31:37.844Z,2.60
2019-05-18T11:32:37.828Z,2.60
2019-05-18T11:33:37.820Z,2.80
2019-05-18T11:34:37.806Z,2.80
2019-05-18T11:35:37.803Z,2.60
2019-05-18T11:36:37.783Z,2.80
2019-05-18T11:37:37.771Z,2.70
2019-05-18T11:38:37.762Z,2.60
2019-05-18T11:39:37.750Z,2.70
2019-05-18T11:40:37.742Z,3.00
2019-05-18T11:41:37.734Z,2.80
2019-05-18T11:42:37.725Z,2.70
2019-05-18T11:43:37.708Z,2.70
2019-05-18T11:44:37.693Z,2.60
2019-05-18T11:45:37.681Z,2.60
2019-05-18T11:46:37.675Z,2.80
2019-05-18T11:47:37.691Z,2.80
2019-05-18T11:48:37.661Z,2.80
2019-05-18T11:49:37.637Z,2.70
2019-05-18T11:50:37.629Z,2.90
2019-05-18T11:51:37.621Z,2.30
2019-05-18T11:52:37.603Z,2.50
2019-05-18T11:53:37.597Z,2.60
2019-05-18T11:54:37.590Z,2.50
2019-05-18T11:55:37.569Z,2.50
2019-05-18T11:56:37.559Z,2.80
2019-05-18T11:57:37.547Z,2.60
2019-05-18T11:58:37.535Z,2.70
2019-05-18T11:59:37.532Z,2.70
2019-05-18T12:00:37.554Z,2.50
2019-05-18T12:01:37.503Z,2.70
2019-05-18T12:02:37.493Z,2.40
2019-05-18T12:03:37.481Z,2.60
2019-05-18T12:04:37.469Z,2.70
2019-05-18T12:05:37.479Z,2.50
2019-05-18T12:06:37.448Z,2.40
2019-05-18T12:07:37.435Z,2.70
2019-05-18T12:08:37.427Z,2.50
2019-05-18T12:09:37.434Z,2.70
2019-05-18T12:10:37.455Z,2.50
2019-05-18T12:11:37.395Z,2.60
2019-05-18T12:12:37.378Z,2.50
2019-05-18T12:13:37.366Z,2.40
2019-05-18T12:14:37.365Z,2.60
2019-05-18T12:15:37.344Z,2.50
2019-05-18T12:16:37.338Z,2.80
2019-05-18T12:17:37.351Z,2.90
2019-05-18T12:18:37.311Z,2.60
2019-05-18T12:19:37.299Z,2.60
2019-05-18T12:20:37.291Z,2.70
2019-05-18T12:21:37.278Z,2.60
2019-05-18T12:22:37.265Z,2.60
2019-05-18T12:23:37.284Z,2.40
2019-05-18T12:24:37.242Z,2.30
2019-05-18T12:25:37.235Z,2.50
2019-05-18T12:26:37.220Z,2.50
2019-05-18T12:27:37.233Z,2.60
2019-05-18T12:28:37.198Z,2.60
2019-05-18T12:29:37.232Z,2.50
2019-05-18T12:30:37.186Z,2.60
2019-05-18T12:31:37.169Z,2.70
2019-05-18T12:32:37.167Z,2.60
2019-05-18T12:33:37.142Z,2.50
2019-05-18T12:34:37.135Z,2.60
2019-05-18T12:35:37.129Z,2.50
2019-05-18T12:36:37.109Z,2.60
2019-05-18T12:37:37.098Z,2.50
2019-05-18T12:38:37.086Z,2.30
2019-05-18T12:39:37.075Z,2.60
2019-05-18T12:40:37.062Z,2.80
2019-05-18T12:41:37.072Z,2.60
2019-05-18T12:42:37.040Z,2.40
2019-05-18T12:43:37.055Z,2.30
2019-05-18T12:44:37.050Z,2.50
2019-05-18T12:45:37.006Z,2.70
2019-05-18T12:46:37.015Z,2.60
2019-05-18T12:47:37.012Z,2.50
2019-05-18T12:48:36.973Z,2.60
2019-05-18T12:49:36.993Z,2.40
2019-05-18T12:50:36.950Z,2.90
2019-05-18T12:51:36.939Z,2.70
2019-05-18T12:52:36.933Z,2.50
2019-05-18T12:53:36.952Z,2.60
2019-05-18T12:54:46.183Z,2.40
2019-05-18T12:55:37.892Z,2.30
2019-05-18T12:56:36.885Z,2.30
2019-05-18T12:57:36.873Z,2.60
2019-05-18T12:58:37.662Z,2.40
2019-05-18T12:59:36.857Z,2.70
2019-05-18T13:00:36.838Z,2.50
2019-05-18T13:01:36.827Z,2.40
2019-05-18T13:02:36.816Z,2.60
2019-05-18T13:03:36.805Z,2.40
2019-05-18T13:04:36.793Z,2.50
2019-05-18T13:05:36.829Z,2.50
2019-05-18T13:06:36.770Z,2.40
2019-05-18T13:07:36.760Z,2.50
2019-05-18T13:08:36.751Z,2.60
2019-05-18T13:09:36.737Z,2.40
2019-05-18T13:10:36.729Z,2.50
2019-05-18T13:11:36.732Z,2.70
2019-05-18T13:12:36.704Z,2.60
2019-05-18T13:13:36.692Z,2.40
2019-05-18T13:14:36.683Z,2.50
2019-05-18T13:15:36.671Z,2.30
2019-05-18T13:16:36.659Z,2.60
2019-05-18T13:17:36.652Z,2.40
2019-05-18T13:18:36.636Z,2.60